sensor_id;sensor_type;location;lat;lon;timestamp;temperature;humidity
24049;DHT22;12250;50.956;4.746;2024-03-23T00:55:43;7.60;99.90
24049;DHT22;12250;50.956;4.746;2024-03-23T00:58:09;7.70;99.90
24049;DHT22;12250;50.956;4.746;2024-03-23T01:00:34;7.70;99.90
24049;DHT22;12250;50.956;4.746;2024-03-23T01:03:00;7.70;99.90
24049;DHT22;12250;50.956;4.746;2024-03-23T01:05:26;7.70;99.90
24049;DHT22;12250;50.956;4.746;2024-03-23T01:07:52;7.80;99.90
24049;DHT22;12250;50.956;4.746;2024-03-23T01:10:17;7.70;99.90
24049;DHT22;12250;50.956;4.746;2024-03-23T01:12:43;7.60;99.90
24049;DHT22;12250;50.956;4.746;2024-03-23T01:15:09;7.60;99.90
24049;DHT22;12250;50.956;4.746;2024-03-23T01:17:34;7.60;99.90
24049;DHT22;12250;50.956;4.746;2024-03-23T01:20:00;7.60;99.90
24049;DHT22;12250;50.956;4.746;2024-03-23T01:22:26;7.70;99.90
24049;DHT22;12250;50.956;4.746;2024-03-23T01:24:52;7.60;99.90
24049;DHT22;12250;50.956;4.746;2024-03-23T01:27:17;7.60;99.90
24049;DHT22;12250;50.956;4.746;2024-03-23T01:29:43;7.60;99.90
24049;DHT22;12250;50.956;4.746;2024-03-23T01:32:10;7.50;99.90
24049;DHT22;12250;50.956;4.746;2024-03-23T01:34:35;7.60;99.90
24049;DHT22;12250;50.956;4.746;2024-03-23T01:37:01;7.50;99.90
24049;DHT22;12250;50.956;4.746;2024-03-23T01:39:27;7.60;99.90
24049;DHT22;12250;50.956;4.746;2024-03-23T01:41:52;7.60;99.90
24049;DHT22;12250;50.956;4.746;2024-03-23T01:44:18;7.60;99.90
24049;DHT22;12250;50.956;4.746;2024-03-23T01:46:44;7.60;99.90
24049;DHT22;12250;50.956;4.746;2024-03-23T01:49:10;7.60;99.90
24049;DHT22;12250;50.956;4.746;2024-03-23T01:51:37;7.50;99.90
24049;DHT22;12250;50.956;4.746;2024-03-23T01:54:04;7.50;99.90
24049;DHT22;12250;50.956;4.746;2024-03-23T01:56:34;7.40;99.90
24049;DHT22;12250;50.956;4.746;2024-03-23T01:59:05;7.40;99.90
24049;DHT22;12250;50.956;4.746;2024-03-23T02:01:32;7.40;99.90
24049;DHT22;12250;50.956;4.746;2024-03-23T02:03:58;7.40;99.90
24049;DHT22;12250;50.956;4.746;2024-03-23T02:06:27;7.40;99.90
24049;DHT22;12250;50.956;4.746;2024-03-23T02:08:54;7.40;99.90
24049;DHT22;12250;50.956;4.746;2024-03-23T02:11:20;7.40;99.90
24049;DHT22;12250;50.956;4.746;2024-03-23T02:13:46;7.30;99.90
24049;DHT22;12250;50.956;4.746;2024-03-23T02:16:11;7.30;99.90
24049;DHT22;12250;50.956;4.746;2024-03-23T02:18:38;7.20;99.90
24049;DHT22;12250;50.956;4.746;2024-03-23T02:21:04;7.00;99.90
24049;DHT22;12250;50.956;4.746;2024-03-23T02:23:30;6.90;99.90
24049;DHT22;12250;50.956;4.746;2024-03-23T02:25:56;6.80;99.90
24049;DHT22;12250;50.956;4.746;2024-03-23T02:28:22;6.70;99.90
24049;DHT22;12250;50.956;4.746;2024-03-23T02:30:50;6.60;99.90
24049;DHT22;12250;50.956;4.746;2024-03-23T02:33:16;6.60;99.90
24049;DHT22;12250;50.956;4.746;2024-03-23T02:35:45;6.70;99.90
24049;DHT22;12250;50.956;4.746;2024-03-23T02:38:11;6.70;99.90
24049;DHT22;12250;50.956;4.746;2024-03-23T02:40:37;6.80;99.90
24049;DHT22;12250;50.956;4.746;2024-03-23T02:43:03;6.80;99.90
24049;DHT22;12250;50.956;4.746;2024-03-23T02:45:29;6.90;99.90
24049;DHT22;12250;50.956;4.746;2024-03-23T02:47:55;6.90;99.90
24049;DHT22;12250;50.956;4.746;2024-03-23T02:50:21;6.90;99.90
24049;DHT22;12250;50.956;4.746;2024-03-23T02:52:47;7.00;99.90
24049;DHT22;12250;50.956;4.746;2024-03-23T02:55:13;7.00;99.90
24049;DHT22;12250;50.956;4.746;2024-03-23T02:57:38;7.00;99.90
24049;DHT22;12250;50.956;4.746;2024-03-23T03:00:05;7.10;99.90
24049;DHT22;12250;50.956;4.746;2024-03-23T03:02:32;7.10;99.90
24049;DHT22;12250;50.956;4.746;2024-03-23T03:04:57;7.10;99.90
24049;DHT22;12250;50.956;4.746;2024-03-23T03:07:23;7.20;99.90
24049;DHT22;12250;50.956;4.746;2024-03-23T03:09:50;7.10;99.90
24049;DHT22;12250;50.956;4.746;2024-03-23T03:12:15;7.10;99.90
24049;DHT22;12250;50.956;4.746;2024-03-23T03:14:41;7.20;99.90
24049;DHT22;12250;50.956;4.746;2024-03-23T03:17:07;7.20;99.90
24049;DHT22;12250;50.956;4.746;2024-03-23T03:19:33;7.20;99.90
24049;DHT22;12250;50.956;4.746;2024-03-23T03:21:59;7.20;99.90
24049;DHT22;12250;50.956;4.746;2024-03-23T03:24:24;7.20;99.90
24049;DHT22;12250;50.956;4.746;2024-03-23T03:26:50;7.30;99.90
24049;DHT22;12250;50.956;4.746;2024-03-23T03:29:16;7.20;99.90
24049;DHT22;12250;50.956;4.746;2024-03-23T03:31:43;7.20;99.90
24049;DHT22;12250;50.956;4.746;2024-03-23T03:34:08;7.10;99.90
24049;DHT22;12250;50.956;4.746;2024-03-23T03:36:34;7.10;99.90
24049;DHT22;12250;50.956;4.746;2024-03-23T03:39:00;7.20;99.90
24049;DHT22;12250;50.956;4.746;2024-03-23T03:41:26;7.20;99.90
24049;DHT22;12250;50.956;4.746;2024-03-23T03:43:51;7.10;99.90
24049;DHT22;12250;50.956;4.746;2024-03-23T03:46:17;7.10;99.90
24049;DHT22;12250;50.956;4.746;2024-03-23T03:48:43;7.10;99.90
24049;DHT22;12250;50.956;4.746;2024-03-23T03:51:10;7.10;99.90
24049;DHT22;12250;50.956;4.746;2024-03-23T03:53:36;7.10;99.90
24049;DHT22;12250;50.956;4.746;2024-03-23T03:56:02;7.00;99.90
24049;DHT22;12250;50.956;4.746;2024-03-23T03:58:28;7.00;99.90
24049;DHT22;12250;50.956;4.746;2024-03-23T04:00:54;7.00;99.90
24049;DHT22;12250;50.956;4.746;2024-03-23T04:03:20;7.00;99.90
24049;DHT22;12250;50.956;4.746;2024-03-23T04:05:53;7.00;99.90
24049;DHT22;12250;50.956;4.746;2024-03-23T04:08:20;7.00;99.90
24049;DHT22;12250;50.956;4.746;2024-03-23T04:10:45;7.00;99.90
24049;DHT22;12250;50.956;4.746;2024-03-23T04:13:12;7.00;99.90
24049;DHT22;12250;50.956;4.746;2024-03-23T04:15:38;7.00;99.90
24049;DHT22;12250;50.956;4.746;2024-03-23T04:18:04;7.00;99.90
24049;DHT22;12250;50.956;4.746;2024-03-23T04:20:30;7.00;99.90
24049;DHT22;12250;50.956;4.746;2024-03-23T04:22:55;7.00;99.90
24049;DHT22;12250;50.956;4.746;2024-03-23T04:25:21;7.00;99.90
24049;DHT22;12250;50.956;4.746;2024-03-23T04:27:47;6.90;99.90
24049;DHT22;12250;50.956;4.746;2024-03-23T04:30:12;6.90;99.90
24049;DHT22;12250;50.956;4.746;2024-03-23T04:32:38;6.90;99.90
24049;DHT22;12250;50.956;4.746;2024-03-23T04:35:04;6.90;99.90
24049;DHT22;12250;50.956;4.746;2024-03-23T04:37:37;6.90;99.90
24049;DHT22;12250;50.956;4.746;2024-03-23T04:40:03;6.90;99.90
24049;DHT22;12250;50.956;4.746;2024-03-23T04:42:31;6.80;99.90
24049;DHT22;12250;50.956;4.746;2024-03-23T04:44:56;6.80;99.90
24049;DHT22;12250;50.956;4.746;2024-03-23T04:47:22;6.70;99.90
24049;DHT22;12250;50.956;4.746;2024-03-23T04:49:48;6.70;99.90
24049;DHT22;12250;50.956;4.746;2024-03-23T04:52:14;6.70;99.90
24049;DHT22;12250;50.956;4.746;2024-03-23T04:54:40;6.70;99.90
24049;DHT22;12250;50.956;4.746;2024-03-23T04:57:07;6.70;99.90
24049;DHT22;12250;50.956;4.746;2024-03-23T04:59:32;6.70;99.90
24049;DHT22;12250;50.956;4.746;2024-03-23T05:01:59;6.80;99.90
24049;DHT22;12250;50.956;4.746;2024-03-23T05:04:25;6.80;99.90
24049;DHT22;12250;50.956;4.746;2024-03-23T05:06:51;6.70;99.90
24049;DHT22;12250;50.956;4.746;2024-03-23T05:09:16;6.70;99.90
24049;DHT22;12250;50.956;4.746;2024-03-23T05:11:42;6.60;99.90
24049;DHT22;12250;50.956;4.746;2024-03-23T05:14:08;6.60;99.90
24049;DHT22;12250;50.956;4.746;2024-03-23T05:16:34;6.50;99.90
24049;DHT22;12250;50.956;4.746;2024-03-23T05:18:59;6.40;99.90
24049;DHT22;12250;50.956;4.746;2024-03-23T05:21:25;6.50;99.90
24049;DHT22;12250;50.956;4.746;2024-03-23T05:23:51;6.40;99.90
24049;DHT22;12250;50.956;4.746;2024-03-23T05:26:17;6.40;99.90
24049;DHT22;12250;50.956;4.746;2024-03-23T05:28:43;6.40;99.90
24049;DHT22;12250;50.956;4.746;2024-03-23T05:31:09;6.40;99.90
24049;DHT22;12250;50.956;4.746;2024-03-23T05:33:38;6.50;99.90
24049;DHT22;12250;50.956;4.746;2024-03-23T05:36:04;6.50;99.90
24049;DHT22;12250;50.956;4.746;2024-03-23T05:38:30;6.60;99.90
24049;DHT22;12250;50.956;4.746;2024-03-23T05:40:59;6.60;99.90
24049;DHT22;12250;50.956;4.746;2024-03-23T05:43:26;6.60;99.90
24049;DHT22;12250;50.956;4.746;2024-03-23T05:45:56;6.60;99.90
24049;DHT22;12250;50.956;4.746;2024-03-23T05:48:22;6.50;99.90
24049;DHT22;12250;50.956;4.746;2024-03-23T05:50:48;6.30;99.90
24049;DHT22;12250;50.956;4.746;2024-03-23T05:53:15;6.20;99.90
24049;DHT22;12250;50.956;4.746;2024-03-23T05:55:41;6.20;99.90
24049;DHT22;12250;50.956;4.746;2024-03-23T05:58:07;6.00;99.90
24049;DHT22;12250;50.956;4.746;2024-03-23T06:00:32;6.00;99.90
24049;DHT22;12250;50.956;4.746;2024-03-23T06:02:58;6.00;99.90
24049;DHT22;12250;50.956;4.746;2024-03-23T06:05:24;5.90;99.90
24049;DHT22;12250;50.956;4.746;2024-03-23T06:07:49;5.90;99.90
24049;DHT22;12250;50.956;4.746;2024-03-23T06:10:15;6.00;99.90
24049;DHT22;12250;50.956;4.746;2024-03-23T06:12:41;6.20;99.90
24049;DHT22;12250;50.956;4.746;2024-03-23T06:15:07;6.40;99.90
24049;DHT22;12250;50.956;4.746;2024-03-23T06:17:36;6.60;99.90
24049;DHT22;12250;50.956;4.746;2024-03-23T06:20:02;6.80;99.90
24049;DHT22;12250;50.956;4.746;2024-03-23T06:22:28;6.90;99.90
24049;DHT22;12250;50.956;4.746;2024-03-23T06:24:53;7.00;99.90
24049;DHT22;12250;50.956;4.746;2024-03-23T06:27:20;7.10;99.90
24049;DHT22;12250;50.956;4.746;2024-03-23T06:29:45;7.30;99.90
24049;DHT22;12250;50.956;4.746;2024-03-23T06:32:11;7.40;99.90
24049;DHT22;12250;50.956;4.746;2024-03-23T06:34:37;7.30;99.90
24049;DHT22;12250;50.956;4.746;2024-03-23T06:37:02;7.30;99.90
24049;DHT22;12250;50.956;4.746;2024-03-23T06:39:28;7.30;99.90
24049;DHT22;12250;50.956;4.746;2024-03-23T06:41:55;7.30;99.90
24049;DHT22;12250;50.956;4.746;2024-03-23T06:44:20;7.20;99.90
24049;DHT22;12250;50.956;4.746;2024-03-23T06:46:46;7.20;99.90
24049;DHT22;12250;50.956;4.746;2024-03-23T06:49:14;7.20;99.90
24049;DHT22;12250;50.956;4.746;2024-03-23T06:51:40;7.30;99.90
24049;DHT22;12250;50.956;4.746;2024-03-23T06:54:06;7.40;99.90
24049;DHT22;12250;50.956;4.746;2024-03-23T06:56:32;7.50;99.90
24049;DHT22;12250;50.956;4.746;2024-03-23T06:58:59;7.60;99.90
24049;DHT22;12250;50.956;4.746;2024-03-23T07:01:24;7.80;99.90
24049;DHT22;12250;50.956;4.746;2024-03-23T07:03:50;7.90;99.90
24049;DHT22;12250;50.956;4.746;2024-03-23T07:06:16;8.00;99.90
24049;DHT22;12250;50.956;4.746;2024-03-23T07:08:41;8.00;99.90
24049;DHT22;12250;50.956;4.746;2024-03-23T07:11:07;8.10;99.90
24049;DHT22;12250;50.956;4.746;2024-03-23T07:13:33;8.20;99.90
24049;DHT22;12250;50.956;4.746;2024-03-23T07:15:58;8.20;99.90
24049;DHT22;12250;50.956;4.746;2024-03-23T07:18:25;8.50;99.90
24049;DHT22;12250;50.956;4.746;2024-03-23T07:20:54;8.60;99.90
24049;DHT22;12250;50.956;4.746;2024-03-23T07:23:22;8.70;99.90
24049;DHT22;12250;50.956;4.746;2024-03-23T07:26:04;8.90;99.90
24049;DHT22;12250;50.956;4.746;2024-03-23T07:28:31;9.10;99.90
24049;DHT22;12250;50.956;4.746;2024-03-23T07:31:09;9.30;99.90
24049;DHT22;12250;50.956;4.746;2024-03-23T07:33:37;9.40;99.90
24049;DHT22;12250;50.956;4.746;2024-03-23T07:36:04;9.20;99.90
24049;DHT22;12250;50.956;4.746;2024-03-23T07:38:30;9.10;99.90
24049;DHT22;12250;50.956;4.746;2024-03-23T07:41:05;9.60;99.90
24049;DHT22;12250;50.956;4.746;2024-03-23T07:43:31;10.40;99.90
24049;DHT22;12250;50.956;4.746;2024-03-23T07:45:57;10.40;99.90
24049;DHT22;12250;50.956;4.746;2024-03-23T07:48:22;10.30;99.90
24049;DHT22;12250;50.956;4.746;2024-03-23T07:51:06;10.40;99.90
24049;DHT22;12250;50.956;4.746;2024-03-23T07:53:35;12.00;99.90
24049;DHT22;12250;50.956;4.746;2024-03-23T07:56:08;13.50;99.90
24049;DHT22;12250;50.956;4.746;2024-03-23T07:58:35;15.40;99.90
24049;DHT22;12250;50.956;4.746;2024-03-23T08:01:06;16.40;99.90
24049;DHT22;12250;50.956;4.746;2024-03-23T08:03:39;16.50;99.90
24049;DHT22;12250;50.956;4.746;2024-03-23T08:06:11;17.80;99.90
24049;DHT22;12250;50.956;4.746;2024-03-23T08:08:37;18.90;97.00
24049;DHT22;12250;50.956;4.746;2024-03-23T08:11:03;19.60;94.10
24049;DHT22;12250;50.956;4.746;2024-03-23T08:13:30;20.30;92.90
24049;DHT22;12250;50.956;4.746;2024-03-23T08:16:00;21.30;92.10
24049;DHT22;12250;50.956;4.746;2024-03-23T08:18:26;21.00;87.40
24049;DHT22;12250;50.956;4.746;2024-03-23T08:21:10;20.50;87.00
24049;DHT22;12250;50.956;4.746;2024-03-23T08:23:36;20.60;87.40
24049;DHT22;12250;50.956;4.746;2024-03-23T08:26:11;20.70;85.60
24049;DHT22;12250;50.956;4.746;2024-03-23T08:28:38;20.40;87.80
24049;DHT22;12250;50.956;4.746;2024-03-23T08:31:07;20.50;86.80
24049;DHT22;12250;50.956;4.746;2024-03-23T08:33:33;20.60;89.40
24049;DHT22;12250;50.956;4.746;2024-03-23T08:36:01;21.20;83.30
24049;DHT22;12250;50.956;4.746;2024-03-23T08:38:27;20.10;83.70
24049;DHT22;12250;50.956;4.746;2024-03-23T08:41:23;19.00;87.60
24049;DHT22;12250;50.956;4.746;2024-03-23T08:43:48;18.80;90.90
24049;DHT22;12250;50.956;4.746;2024-03-23T08:46:15;18.80;88.00
24049;DHT22;12250;50.956;4.746;2024-03-23T08:48:46;18.00;90.30
24049;DHT22;12250;50.956;4.746;2024-03-23T08:51:15;17.00;91.20
24049;DHT22;12250;50.956;4.746;2024-03-23T08:53:42;16.10;92.80
24049;DHT22;12250;50.956;4.746;2024-03-23T08:56:08;14.90;93.80
24049;DHT22;12250;50.956;4.746;2024-03-23T08:58:36;13.60;96.20
24049;DHT22;12250;50.956;4.746;2024-03-23T09:03:34;12.00;99.70
24049;DHT22;12250;50.956;4.746;2024-03-23T09:06:01;11.50;99.90
24049;DHT22;12250;50.956;4.746;2024-03-23T09:08:27;11.10;99.90
24049;DHT22;12250;50.956;4.746;2024-03-23T09:10:53;10.60;99.90
24049;DHT22;12250;50.956;4.746;2024-03-23T09:13:19;10.10;99.90
24049;DHT22;12250;50.956;4.746;2024-03-23T09:15:49;9.60;99.90
24049;DHT22;12250;50.956;4.746;2024-03-23T09:18:15;9.20;99.90
24049;DHT22;12250;50.956;4.746;2024-03-23T09:20:41;9.90;99.90
24049;DHT22;12250;50.956;4.746;2024-03-23T09:23:07;11.10;99.90
24049;DHT22;12250;50.956;4.746;2024-03-23T09:25:36;11.90;99.90
24049;DHT22;12250;50.956;4.746;2024-03-23T09:28:03;13.70;99.90
24049;DHT22;12250;50.956;4.746;2024-03-23T09:30:28;15.90;99.90
24049;DHT22;12250;50.956;4.746;2024-03-23T09:32:54;16.90;96.00
24049;DHT22;12250;50.956;4.746;2024-03-23T09:35:20;16.90;94.40
24049;DHT22;12250;50.956;4.746;2024-03-23T09:37:45;15.90;96.10
24049;DHT22;12250;50.956;4.746;2024-03-23T09:40:11;17.50;94.60
24049;DHT22;12250;50.956;4.746;2024-03-23T09:42:37;19.40;92.20
24049;DHT22;12250;50.956;4.746;2024-03-23T09:45:06;22.00;83.80
24049;DHT22;12250;50.956;4.746;2024-03-23T09:47:34;20.80;79.20
24049;DHT22;12250;50.956;4.746;2024-03-23T09:50:00;19.50;83.60
24049;DHT22;12250;50.956;4.746;2024-03-23T09:52:26;17.90;87.00
24049;DHT22;12250;50.956;4.746;2024-03-23T09:54:52;16.60;90.30
24049;DHT22;12250;50.956;4.746;2024-03-23T09:57:17;16.00;91.80
24049;DHT22;12250;50.956;4.746;2024-03-23T09:59:43;15.90;91.80
24049;DHT22;12250;50.956;4.746;2024-03-23T10:02:09;14.90;91.80
24049;DHT22;12250;50.956;4.746;2024-03-23T10:04:40;14.10;93.70
24049;DHT22;12250;50.956;4.746;2024-03-23T10:07:13;13.20;95.50
24049;DHT22;12250;50.956;4.746;2024-03-23T10:09:39;12.30;97.40
24049;DHT22;12250;50.956;4.746;2024-03-23T10:12:16;11.30;98.10
24049;DHT22;12250;50.956;4.746;2024-03-23T10:14:42;10.50;99.50
24049;DHT22;12250;50.956;4.746;2024-03-23T10:17:21;10.20;99.90
24049;DHT22;12250;50.956;4.746;2024-03-23T10:19:52;11.00;99.90
24049;DHT22;12250;50.956;4.746;2024-03-23T10:22:22;15.60;98.80
24049;DHT22;12250;50.956;4.746;2024-03-23T10:24:49;18.50;92.10
24049;DHT22;12250;50.956;4.746;2024-03-23T10:27:19;18.00;90.60
24049;DHT22;12250;50.956;4.746;2024-03-23T10:29:46;16.30;91.70
24049;DHT22;12250;50.956;4.746;2024-03-23T10:32:12;14.70;92.10
24049;DHT22;12250;50.956;4.746;2024-03-23T10:34:39;15.30;94.00
24049;DHT22;12250;50.956;4.746;2024-03-23T10:37:05;16.10;91.00
24049;DHT22;12250;50.956;4.746;2024-03-23T10:39:36;16.70;88.40
24049;DHT22;12250;50.956;4.746;2024-03-23T10:42:03;18.00;84.60
24049;DHT22;12250;50.956;4.746;2024-03-23T10:44:30;17.30;85.30
24049;DHT22;12250;50.956;4.746;2024-03-23T10:47:05;17.20;83.60
24049;DHT22;12250;50.956;4.746;2024-03-23T10:49:33;16.60;84.90
24049;DHT22;12250;50.956;4.746;2024-03-23T10:52:03;16.00;88.40
24049;DHT22;12250;50.956;4.746;2024-03-23T10:54:30;17.90;85.40
24049;DHT22;12250;50.956;4.746;2024-03-23T10:57:09;19.20;78.90
24049;DHT22;12250;50.956;4.746;2024-03-23T10:59:37;18.30;77.30
24049;DHT22;12250;50.956;4.746;2024-03-23T11:02:04;17.60;79.20
24049;DHT22;12250;50.956;4.746;2024-03-23T11:04:37;17.20;81.60
24049;DHT22;12250;50.956;4.746;2024-03-23T11:09:50;15.50;84.70
24049;DHT22;12250;50.956;4.746;2024-03-23T11:15:01;12.70;91.60
24049;DHT22;12250;50.956;4.746;2024-03-23T11:17:27;11.70;94.30
24049;DHT22;12250;50.956;4.746;2024-03-23T11:20:03;10.80;96.10
24049;DHT22;12250;50.956;4.746;2024-03-23T11:22:41;9.90;98.20
24049;DHT22;12250;50.956;4.746;2024-03-23T11:25:21;9.00;99.90
24049;DHT22;12250;50.956;4.746;2024-03-23T11:27:48;8.30;99.90
24049;DHT22;12250;50.956;4.746;2024-03-23T11:30:18;7.80;99.90
24049;DHT22;12250;50.956;4.746;2024-03-23T11:32:52;7.50;99.90
24049;DHT22;12250;50.956;4.746;2024-03-23T11:35:32;7.40;99.90
24049;DHT22;12250;50.956;4.746;2024-03-23T11:38:06;7.50;99.90
24049;DHT22;12250;50.956;4.746;2024-03-23T11:40:33;8.00;99.90
24049;DHT22;12250;50.956;4.746;2024-03-23T11:43:01;8.40;99.90
24049;DHT22;12250;50.956;4.746;2024-03-23T11:45:27;8.60;99.90
24049;DHT22;12250;50.956;4.746;2024-03-23T11:48:11;8.70;99.90
24049;DHT22;12250;50.956;4.746;2024-03-23T11:50:42;9.00;99.90
24049;DHT22;12250;50.956;4.746;2024-03-23T11:58:13;9.50;99.90
24049;DHT22;12250;50.956;4.746;2024-03-23T12:00:40;9.60;99.90
24049;DHT22;12250;50.956;4.746;2024-03-23T12:03:06;9.70;99.90
24049;DHT22;12250;50.956;4.746;2024-03-23T12:05:32;10.00;99.90
24049;DHT22;12250;50.956;4.746;2024-03-23T12:08:19;10.20;99.90
24049;DHT22;12250;50.956;4.746;2024-03-23T12:10:48;10.30;99.90
24049;DHT22;12250;50.956;4.746;2024-03-23T12:13:16;10.50;99.90
24049;DHT22;12250;50.956;4.746;2024-03-23T12:15:44;10.50;99.90
24049;DHT22;12250;50.956;4.746;2024-03-23T12:18:09;10.40;99.90
24049;DHT22;12250;50.956;4.746;2024-03-23T12:20:39;10.10;99.90
24049;DHT22;12250;50.956;4.746;2024-03-23T12:23:10;9.80;99.90
24049;DHT22;12250;50.956;4.746;2024-03-23T12:25:37;9.90;99.90
24049;DHT22;12250;50.956;4.746;2024-03-23T12:28:03;10.00;99.90
24049;DHT22;12250;50.956;4.746;2024-03-23T12:30:32;10.00;99.90
24049;DHT22;12250;50.956;4.746;2024-03-23T12:32:58;10.20;99.90
24049;DHT22;12250;50.956;4.746;2024-03-23T12:35:24;9.90;99.90
24049;DHT22;12250;50.956;4.746;2024-03-23T12:37:49;9.60;99.90
24049;DHT22;12250;50.956;4.746;2024-03-23T12:40:15;9.30;99.90
24049;DHT22;12250;50.956;4.746;2024-03-23T12:42:41;9.20;99.90
24049;DHT22;12250;50.956;4.746;2024-03-23T12:45:07;9.20;99.90
24049;DHT22;12250;50.956;4.746;2024-03-23T12:47:33;9.10;99.90
24049;DHT22;12250;50.956;4.746;2024-03-23T12:49:58;9.10;99.90
24049;DHT22;12250;50.956;4.746;2024-03-23T12:52:24;9.50;99.90
24049;DHT22;12250;50.956;4.746;2024-03-23T12:54:55;10.00;99.90
24049;DHT22;12250;50.956;4.746;2024-03-23T12:57:25;10.50;99.90
24049;DHT22;12250;50.956;4.746;2024-03-23T12:59:52;10.90;99.90
24049;DHT22;12250;50.956;4.746;2024-03-23T13:02:21;11.20;99.90
24049;DHT22;12250;50.956;4.746;2024-03-23T13:04:50;11.50;99.90
24049;DHT22;12250;50.956;4.746;2024-03-23T13:07:16;11.90;99.90
24049;DHT22;12250;50.956;4.746;2024-03-23T13:09:42;12.00;99.90
24049;DHT22;12250;50.956;4.746;2024-03-23T13:12:08;12.20;99.90
24049;DHT22;12250;50.956;4.746;2024-03-23T13:14:34;12.20;99.80
24049;DHT22;12250;50.956;4.746;2024-03-23T13:17:01;12.40;99.00
24049;DHT22;12250;50.956;4.746;2024-03-23T13:19:28;12.40;99.20
24049;DHT22;12250;50.956;4.746;2024-03-23T13:21:57;12.40;98.50
24049;DHT22;12250;50.956;4.746;2024-03-23T13:24:27;12.40;98.40
24049;DHT22;12250;50.956;4.746;2024-03-23T13:26:53;12.80;98.70
24049;DHT22;12250;50.956;4.746;2024-03-23T13:29:20;12.90;99.20
24049;DHT22;12250;50.956;4.746;2024-03-23T13:31:46;12.90;98.40
24049;DHT22;12250;50.956;4.746;2024-03-23T13:34:13;12.60;96.20
24049;DHT22;12250;50.956;4.746;2024-03-23T13:36:41;12.40;96.00
24049;DHT22;12250;50.956;4.746;2024-03-23T13:39:07;11.50;97.70
24049;DHT22;12250;50.956;4.746;2024-03-23T13:41:43;10.80;99.90
24049;DHT22;12250;50.956;4.746;2024-03-23T13:44:09;10.10;99.90
24049;DHT22;12250;50.956;4.746;2024-03-23T13:46:38;10.20;99.90
24049;DHT22;12250;50.956;4.746;2024-03-23T13:49:05;10.40;99.90
24049;DHT22;12250;50.956;4.746;2024-03-23T13:51:32;10.80;99.90
24049;DHT22;12250;50.956;4.746;2024-03-23T13:53:58;11.20;99.90
24049;DHT22;12250;50.956;4.746;2024-03-23T13:56:27;11.20;99.90
24049;DHT22;12250;50.956;4.746;2024-03-23T13:58:57;11.30;99.90
24049;DHT22;12250;50.956;4.746;2024-03-23T14:01:23;11.10;99.90
24049;DHT22;12250;50.956;4.746;2024-03-23T14:03:50;11.20;99.90
24049;DHT22;12250;50.956;4.746;2024-03-23T14:06:15;11.50;99.90
24049;DHT22;12250;50.956;4.746;2024-03-23T14:08:41;11.80;99.90
24049;DHT22;12250;50.956;4.746;2024-03-23T14:11:08;11.90;99.90
24049;DHT22;12250;50.956;4.746;2024-03-23T14:13:34;12.10;99.90
24049;DHT22;12250;50.956;4.746;2024-03-23T14:16:01;12.00;99.00
24049;DHT22;12250;50.956;4.746;2024-03-23T14:18:27;12.10;99.20
24049;DHT22;12250;50.956;4.746;2024-03-23T14:20:57;12.00;98.70
24049;DHT22;12250;50.956;4.746;2024-03-23T14:23:28;11.80;98.70
24049;DHT22;12250;50.956;4.746;2024-03-23T14:26:00;11.60;98.70
24049;DHT22;12250;50.956;4.746;2024-03-23T14:28:26;11.20;99.00
24049;DHT22;12250;50.956;4.746;2024-03-23T14:30:55;10.90;98.90
24049;DHT22;12250;50.956;4.746;2024-03-23T14:33:21;10.80;99.70
24049;DHT22;12250;50.956;4.746;2024-03-23T14:38:21;10.70;99.90
24049;DHT22;12250;50.956;4.746;2024-03-23T14:40:47;11.00;99.90
24049;DHT22;12250;50.956;4.746;2024-03-23T14:43:12;11.30;99.90
24049;DHT22;12250;50.956;4.746;2024-03-23T14:48:32;11.70;99.90
24049;DHT22;12250;50.956;4.746;2024-03-23T14:50:58;11.90;99.90
24049;DHT22;12250;50.956;4.746;2024-03-23T14:53:25;12.10;99.90
24049;DHT22;12250;50.956;4.746;2024-03-23T14:55:54;12.10;99.90
24049;DHT22;12250;50.956;4.746;2024-03-23T14:58:20;12.10;99.90
24049;DHT22;12250;50.956;4.746;2024-03-23T15:00:45;12.20;99.90
24049;DHT22;12250;50.956;4.746;2024-03-23T15:03:11;12.30;99.90
24049;DHT22;12250;50.956;4.746;2024-03-23T15:05:37;12.20;99.20
24049;DHT22;12250;50.956;4.746;2024-03-23T15:08:03;12.10;99.90
24049;DHT22;12250;50.956;4.746;2024-03-23T15:10:29;12.30;99.90
24049;DHT22;12250;50.956;4.746;2024-03-23T15:12:54;12.30;99.20
24049;DHT22;12250;50.956;4.746;2024-03-23T15:15:20;12.20;99.20
24049;DHT22;12250;50.956;4.746;2024-03-23T15:17:46;12.30;99.40
24049;DHT22;12250;50.956;4.746;2024-03-23T15:20:11;12.50;98.50
24049;DHT22;12250;50.956;4.746;2024-03-23T15:22:38;12.30;98.40
24049;DHT22;12250;50.956;4.746;2024-03-23T15:25:04;12.20;99.00
24049;DHT22;12250;50.956;4.746;2024-03-23T15:27:29;12.20;99.00
24049;DHT22;12250;50.956;4.746;2024-03-23T15:29:58;12.10;99.60
24049;DHT22;12250;50.956;4.746;2024-03-23T15:32:24;12.00;99.90
24049;DHT22;12250;50.956;4.746;2024-03-23T15:34:49;11.90;99.60
24049;DHT22;12250;50.956;4.746;2024-03-23T15:37:15;12.00;99.70
24049;DHT22;12250;50.956;4.746;2024-03-23T15:39:41;12.10;99.50
24049;DHT22;12250;50.956;4.746;2024-03-23T15:42:07;12.20;99.40
24049;DHT22;12250;50.956;4.746;2024-03-23T15:44:33;12.20;98.40
24049;DHT22;12250;50.956;4.746;2024-03-23T15:46:59;12.10;98.60
24049;DHT22;12250;50.956;4.746;2024-03-23T15:49:24;12.10;99.20
24049;DHT22;12250;50.956;4.746;2024-03-23T15:51:50;11.70;98.90
24049;DHT22;12250;50.956;4.746;2024-03-23T15:54:16;11.20;99.70
24049;DHT22;12250;50.956;4.746;2024-03-23T15:56:41;10.50;99.90
24049;DHT22;12250;50.956;4.746;2024-03-23T15:59:07;10.00;99.90
24049;DHT22;12250;50.956;4.746;2024-03-23T16:01:33;9.70;99.90
24049;DHT22;12250;50.956;4.746;2024-03-23T16:04:01;9.80;99.90
24049;DHT22;12250;50.956;4.746;2024-03-23T16:06:27;9.80;99.90
24049;DHT22;12250;50.956;4.746;2024-03-23T16:08:52;9.80;99.90
24049;DHT22;12250;50.956;4.746;2024-03-23T16:11:18;9.70;99.90
24049;DHT22;12250;50.956;4.746;2024-03-23T16:13:44;9.70;99.90
24049;DHT22;12250;50.956;4.746;2024-03-23T16:16:12;9.60;99.90
24049;DHT22;12250;50.956;4.746;2024-03-23T16:18:38;9.50;99.90
24049;DHT22;12250;50.956;4.746;2024-03-23T16:21:07;9.30;99.90
24049;DHT22;12250;50.956;4.746;2024-03-23T16:23:37;9.20;99.90
24049;DHT22;12250;50.956;4.746;2024-03-23T16:26:03;9.10;99.90
24049;DHT22;12250;50.956;4.746;2024-03-23T16:28:31;9.00;99.90
24049;DHT22;12250;50.956;4.746;2024-03-23T16:31:04;8.90;99.90
24049;DHT22;12250;50.956;4.746;2024-03-23T16:33:32;8.90;99.90
24049;DHT22;12250;50.956;4.746;2024-03-23T16:36:00;8.90;99.90
24049;DHT22;12250;50.956;4.746;2024-03-23T16:38:29;8.80;99.90
24049;DHT22;12250;50.956;4.746;2024-03-23T16:41:00;8.70;99.90
24049;DHT22;12250;50.956;4.746;2024-03-23T16:43:27;8.60;99.90
24049;DHT22;12250;50.956;4.746;2024-03-23T16:45:54;8.50;99.90
24049;DHT22;12250;50.956;4.746;2024-03-23T16:48:20;8.40;99.90
24049;DHT22;12250;50.956;4.746;2024-03-23T16:50:46;8.30;99.90
24049;DHT22;12250;50.956;4.746;2024-03-23T16:53:13;8.20;99.90